Time,TemperatureF,DewpointF,PressureIn,WindDirection,WindDirectionDegrees,WindSpeedMPH,WindSpeedGustMPH,Humidity,HourlyPrecipIn,Conditions,Clouds,dailyrainin,SoftwareType,DateUTC
2013-06-20 00:02:00,56.0,53.0,30.08,SSE,155,2.0,-999.0,90,-99.99,,,-99.99,,2013-06-20 04:02:00,
2013-06-20 00:11:00,56.0,52.0,30.07,SSW,196,3.0,-999.0,88,-99.99,,,-99.99,,2013-06-20 04:11:00,
2013-06-20 00:23:00,56.0,52.0,30.08,South,172,2.0,-999.0,88,-99.99,,,-99.99,,2013-06-20 04:23:00,
2013-06-20 00:34:00,56.0,52.0,30.08,SW,215,2.0,-999.0,87,-99.99,,,-99.99,,2013-06-20 04:34:00,
2013-06-20 00:43:00,56.0,52.0,30.08,SW,215,2.0,-999.0,87,-99.99,,,-99.99,,2013-06-20 04:43:00,
2013-06-20 00:54:00,56.0,52.0,30.08,South,189,3.0,-999.0,85,-99.99,,,-99.99,,2013-06-20 04:54:00,
2013-06-20 01:02:00,56.0,52.0,30.08,South,189,3.0,-999.0,85,-99.99,,,-99.99,,2013-06-20 05:02:00,
2013-06-20 01:12:00,55.0,50.0,30.08,SW,221,4.0,-999.0,84,-99.99,,,-99.99,,2013-06-20 05:12:00,
2013-06-20 01:22:00,55.0,50.0,30.08,SW,221,3.0,-999.0,83,-99.99,,,-99.99,,2013-06-20 05:22:00,
2013-06-20 01:33:00,55.0,50.0,30.09,SSW,200,4.0,-999.0,84,-99.99,,,-99.99,,2013-06-20 05:33:00,
2013-06-20 01:44:00,55.0,50.0,30.09,SSW,200,4.0,-999.0,84,-99.99,,,-99.99,,2013-06-20 05:44:00,
2013-06-20 01:53:00,55.0,50.0,30.09,SW,215,3.0,-999.0,82,-99.99,,,-99.99,,2013-06-20 05:53:00,
2013-06-20 02:02:00,55.0,50.0,30.09,SSW,198,2.0,-999.0,83,-99.99,,,-99.99,,2013-06-20 06:02:00,
2013-06-20 02:11:00,55.0,50.0,30.09,SSW,198,2.0,-999.0,83,-99.99,,,-99.99,,2013-06-20 06:11:00,
2013-06-20 02:22:00,55.0,49.0,30.09,SW,223,3.0,-999.0,81,-99.99,,,-99.99,,2013-06-20 06:22:00,
2013-06-20 02:34:00,55.0,50.0,30.09,SSW,210,4.0,-999.0,82,-99.99,,,-99.99,,2013-06-20 06:34:00,
2013-06-20 02:43:00,55.0,50.0,30.09,SSW,210,4.0,-999.0,82,-99.99,,,-99.99,,2013-06-20 06:43:00,
2013-06-20 02:53:00,55.0,49.0,30.09,SW,215,5.0,-999.0,80,-99.99,,,-99.99,,2013-06-20 06:53:00,
2013-06-20 03:01:00,55.0,49.0,30.09,South,190,4.0,-999.0,80,-99.99,,,-99.99,,2013-06-20 07:01:00,
2013-06-20 03:12:00,55.0,49.0,30.09,South,190,4.0,-999.0,80,-99.99,,,-99.99,,2013-06-20 07:12:00,
2013-06-20 03:22:00,55.0,49.0,30.09,SSW,213,3.0,-999.0,79,-99.99,,,-99.99,,2013-06-20 07:22:00,
2013-06-20 03:34:00,55.0,49.0,30.08,SSW,206,4.0,-999.0,80,-99.99,,,-99.99,,2013-06-20 07:34:00,
2013-06-20 03:44:00,55.0,49.0,30.08,SSW,206,4.0,-999.0,80,-99.99,,,-99.99,,2013-06-20 07:44:00,
2013-06-20 03:53:00,55.0,48.0,30.09,SW,215,5.0,-999.0,78,-99.99,,,-99.99,,2013-06-20 07:53:00,
2013-06-20 04:02:00,55.0,48.0,30.08,SSW,202,5.0,-999.0,77,-99.99,,,-99.99,,2013-06-20 08:02:00,
2013-06-20 04:11:00,55.0,48.0,30.08,SSW,202,5.0,-999.0,77,-99.99,,,-99.99,,2013-06-20 08:11:00,
2013-06-20 04:22:00,55.0,48.0,30.09,SSW,213,6.0,-999.0,77,-99.99,,,-99.99,,2013-06-20 08:22:00,
2013-06-20 04:34:00,55.0,48.0,30.09,SSW,213,6.0,-999.0,77,-99.99,,,-99.99,,2013-06-20 08:34:00,
2013-06-20 04:43:00,55.0,48.0,30.09,SW,215,3.0,-999.0,76,-99.99,,,-99.99,,2013-06-20 08:43:00,
2013-06-20 04:53:00,55.0,48.0,30.09,SSW,211,3.0,-999.0,76,-99.99,,,-99.99,,2013-06-20 08:53:00,
2013-06-20 05:02:00,55.0,48.0,30.09,SSW,211,3.0,-999.0,76,-99.99,,,-99.99,,2013-06-20 09:02:00,
2013-06-20 05:12:00,55.0,48.0,30.10,SSW,205,4.0,-999.0,76,-99.99,,,-99.99,,2013-06-20 09:12:00,
2013-06-20 05:22:00,55.0,48.0,30.10,SSW,213,4.0,-999.0,76,-99.99,,,-99.99,,2013-06-20 09:22:00,
2013-06-20 05:33:00,55.0,48.0,30.10,SSW,207,4.0,-999.0,76,-99.99,,,-99.99,,2013-06-20 09:33:00,
2013-06-20 05:42:00,55.0,48.0,30.10,SSW,207,4.0,-999.0,76,-99.99,,,-99.99,,2013-06-20 09:42:00,
2013-06-20 05:52:00,55.0,47.0,30.11,SW,216,4.0,-999.0,75,-99.99,,,-99.99,,2013-06-20 09:52:00,
2013-06-20 06:02:00,55.0,47.0,30.11,SW,222,3.0,-999.0,75,-99.99,,,-99.99,,2013-06-20 10:02:00,
2013-06-20 06:11:00,55.0,47.0,30.11,SW,222,3.0,-999.0,75,-99.99,,,-99.99,,2013-06-20 10:11:00,
2013-06-20 06:22:00,55.0,47.0,30.11,SW,221,4.0,-999.0,75,-99.99,,,-99.99,,2013-06-20 10:22:00,
2013-06-20 06:34:00,55.0,47.0,30.11,SW,221,4.0,-999.0,75,-99.99,,,-99.99,,2013-06-20 10:34:00,
2013-06-20 06:43:00,54.0,47.0,30.12,South,183,3.0,-999.0,76,-99.99,,,-99.99,,2013-06-20 10:43:00,
2013-06-20 06:53:00,54.0,46.0,30.12,SSW,193,3.0,-999.0,75,-99.99,,,-99.99,,2013-06-20 10:53:00,
2013-06-20 07:02:00,55.0,47.0,30.12,SSW,198,3.0,-999.0,74,-99.99,,,-99.99,,2013-06-20 11:02:00,
2013-06-20 07:12:00,55.0,47.0,30.12,SSW,198,3.0,-999.0,74,-99.99,,,-99.99,,2013-06-20 11:12:00,
2013-06-20 07:22:00,55.0,47.0,30.13,SSW,213,5.0,-999.0,74,-99.99,,,-99.99,,2013-06-20 11:22:00,
2013-06-20 07:34:00,55.0,47.0,30.13,SSW,213,5.0,-999.0,74,-99.99,,,-99.99,,2013-06-20 11:34:00,
2013-06-20 07:43:00,55.0,47.0,30.13,SW,226,3.0,-999.0,74,-99.99,,,-99.99,,2013-06-20 11:43:00,
2013-06-20 07:53:00,55.0,47.0,30.14,SSW,213,3.0,-999.0,74,-99.99,,,-99.99,,2013-06-20 11:53:00,
2013-06-20 08:02:00,55.0,47.0,30.14,SSW,213,3.0,-999.0,74,-99.99,,,-99.99,,2013-06-20 12:02:00,
2013-06-20 08:12:00,55.0,47.0,30.15,SSW,213,4.0,-999.0,74,-99.99,,,-99.99,,2013-06-20 12:12:00,
2013-06-20 08:22:00,56.0,49.0,30.15,SW,217,4.0,-999.0,76,-99.99,,,-99.99,,2013-06-20 12:22:00,
2013-06-20 08:34:00,56.0,49.0,30.15,SW,217,4.0,-999.0,76,-99.99,,,-99.99,,2013-06-20 12:34:00,
2013-06-20 08:43:00,57.0,52.0,30.15,SW,236,3.0,-999.0,83,-99.99,,,-99.99,,2013-06-20 12:43:00,
2013-06-20 08:53:00,57.0,54.0,30.15,SW,219,4.0,-999.0,91,-99.99,,,-99.99,,2013-06-20 12:53:00,
2013-06-20 09:02:00,57.0,54.0,30.15,SW,219,4.0,-999.0,91,-99.99,,,-99.99,,2013-06-20 13:02:00,
2013-06-20 09:11:00,58.0,56.0,30.15,SW,224,4.0,-999.0,92,-99.99,,,-99.99,,2013-06-20 13:11:00,
2013-06-20 09:22:00,58.0,55.0,30.15,WSW,248,4.0,-999.0,91,-99.99,,,-99.99,,2013-06-20 13:22:00,
2013-06-20 09:33:00,58.0,55.0,30.15,WSW,248,4.0,-999.0,91,-99.99,,,-99.99,,2013-06-20 13:33:00,
2013-06-20 09:42:00,61.0,56.0,30.16,SSW,205,3.0,-999.0,85,-99.99,,,-99.99,,2013-06-20 13:42:00,
2013-06-20 09:53:00,63.0,56.0,30.16,South,176,3.0,-999.0,78,-99.99,,,-99.99,,2013-06-20 13:53:00,
2013-06-20 10:02:00,63.0,55.0,30.16,SSW,209,3.0,-999.0,76,-99.99,,,-99.99,,2013-06-20 14:02:00,
2013-06-20 10:11:00,63.0,55.0,30.16,SSW,209,3.0,-999.0,76,-99.99,,,-99.99,,2013-06-20 14:11:00,
2013-06-20 10:22:00,65.0,55.0,30.16,SSW,198,4.0,-999.0,70,-99.99,,,-99.99,,2013-06-20 14:22:00,
2013-06-20 10:32:00,65.0,55.0,30.16,SSW,198,4.0,-999.0,70,-99.99,,,-99.99,,2013-06-20 14:32:00,
2013-06-20 10:42:00,65.0,56.0,30.16,SSE,167,5.0,-999.0,73,-99.99,,,-99.99,,2013-06-20 14:42:00,
2013-06-20 10:53:00,64.0,56.0,30.16,SW,234,4.0,-999.0,75,-99.99,,,-99.99,,2013-06-20 14:53:00,
2013-06-20 11:02:00,64.0,56.0,30.16,SW,234,4.0,-999.0,75,-99.99,,,-99.99,,2013-06-20 15:02:00,
2013-06-20 11:11:00,64.0,55.0,30.16,SW,224,3.0,-999.0,72,-99.99,,,-99.99,,2013-06-20 15:11:00,
2013-06-20 11:22:00,65.0,55.0,30.16,WSW,240,3.0,-999.0,70,-99.99,,,-99.99,,2013-06-20 15:22:00,
2013-06-20 11:33:00,65.0,55.0,30.16,WSW,240,3.0,-999.0,70,-99.99,,,-99.99,,2013-06-20 15:33:00,
2013-06-20 11:43:00,65.0,55.0,30.16,South,180,3.0,-999.0,70,-99.99,,,-99.99,,2013-06-20 15:43:00,
2013-06-20 11:53:00,66.0,56.0,30.16,WSW,244,3.0,-999.0,69,-99.99,,,-99.99,,2013-06-20 15:53:00,
2013-06-20 12:02:00,64.0,56.0,30.16,WSW,239,6.0,-999.0,76,-99.99,,,-99.99,,2013-06-20 16:02:00,
2013-06-20 12:12:00,64.0,56.0,30.16,WSW,239,6.0,-999.0,76,-99.99,,,-99.99,,2013-06-20 16:12:00,
2013-06-20 12:22:00,68.0,56.0,30.16,SW,219,4.0,-999.0,66,-99.99,,,-99.99,,2013-06-20 16:22:00,
2013-06-20 12:33:00,68.0,56.0,30.16,SW,219,4.0,-999.0,66,-99.99,,,-99.99,,2013-06-20 16:33:00,
2013-06-20 12:43:00,65.0,56.0,30.16,SW,220,5.0,-999.0,74,-99.99,,,-99.99,,2013-06-20 16:43:00,
2013-06-20 12:53:00,68.0,56.0,30.16,South,172,3.0,-999.0,66,-99.99,,,-99.99,,2013-06-20 16:53:00,
2013-06-20 13:02:00,68.0,56.0,30.16,South,172,3.0,-999.0,66,-99.99,,,-99.99,,2013-06-20 17:02:00,
2013-06-20 13:12:00,70.0,56.0,30.16,South,173,5.0,-999.0,61,-99.99,,,-99.99,,2013-06-20 17:12:00,
2013-06-20 13:22:00,71.0,55.0,30.16,SW,223,5.0,-999.0,58,-99.99,,,-99.99,,2013-06-20 17:22:00,
2013-06-20 13:32:00,71.0,55.0,30.16,SW,223,5.0,-999.0,58,-99.99,,,-99.99,,2013-06-20 17:32:00,
2013-06-20 13:43:00,69.0,55.0,30.16,SW,221,6.0,-999.0,62,-99.99,,,-99.99,,2013-06-20 17:43:00,
2013-06-20 13:53:00,69.0,55.0,30.16,SW,221,6.0,-999.0,62,-99.99,,,-99.99,,2013-06-20 17:53:00,
2013-06-20 14:01:00,69.0,55.0,30.16,SW,221,6.0,-999.0,62,-99.99,,,-99.99,,2013-06-20 18:01:00,
2013-06-20 14:12:00,71.0,55.0,30.15,South,187,6.0,-999.0,58,-99.99,,,-99.99,,2013-06-20 18:12:00,
2013-06-20 14:22:00,73.0,56.0,30.15,SW,234,4.0,-999.0,55,-99.99,,,-99.99,,2013-06-20 18:22:00,
2013-06-20 14:33:00,73.0,56.0,30.15,SW,234,4.0,-999.0,55,-99.99,,,-99.99,,2013-06-20 18:33:00,
2013-06-20 14:43:00,69.0,54.0,30.15,SSW,211,7.0,-999.0,59,-99.99,,,-99.99,,2013-06-20 18:43:00,
2013-06-20 14:53:00,73.0,54.0,30.14,SW,214,6.0,-999.0,52,-99.99,,,-99.99,,2013-06-20 18:53:00,
2013-06-20 15:01:00,73.0,54.0,30.14,SW,214,6.0,-999.0,52,-99.99,,,-99.99,,2013-06-20 19:01:00,
2013-06-20 15:11:00,71.0,55.0,30.14,SSW,195,3.0,-999.0,57,-99.99,,,-99.99,,2013-06-20 19:11:00,
2013-06-20 15:22:00,71.0,55.0,30.14,SW,227,4.0,-999.0,57,-99.99,,,-99.99,,2013-06-20 19:22:00,
2013-06-20 15:34:00,71.0,55.0,30.14,SW,227,4.0,-999.0,57,-99.99,,,-99.99,,2013-06-20 19:34:00,
2013-06-20 15:43:00,73.0,55.0,30.13,SW,228,6.0,-999.0,54,-99.99,,,-99.99,,2013-06-20 19:43:00,
2013-06-20 15:52:00,74.0,56.0,30.13,SW,219,4.0,-999.0,53,-99.99,,,-99.99,,2013-06-20 19:52:00,
2013-06-20 16:02:00,73.0,55.0,30.14,SSW,213,6.0,-999.0,54,-99.99,,,-99.99,,2013-06-20 20:02:00,
2013-06-20 16:11:00,73.0,55.0,30.14,SSW,213,6.0,-999.0,54,-99.99,,,-99.99,,2013-06-20 20:11:00,
2013-06-20 16:33:00,74.0,56.0,30.14,SW,223,7.0,-999.0,53,-99.99,,,-99.99,,2013-06-20 20:33:00,
2013-06-20 16:52:00,71.0,55.0,30.14,SW,219,5.0,-999.0,57,-99.99,,,-99.99,,2013-06-20 20:52:00,